Time;durP1;ratioP1;P1;durP2;ratioP2;P2;SDS_P1;SDS_P2;PMS_P1;PMS_P2;Temp;Humidity;BMP_temperature;BMP_pressure;BME280_temperature;BME280_humidity;BME280_pressure;Samples;Min_cycle;Max_cycle;Signal;HPM_P1;HPM_P2
2022/10/25 00:00:50;;;;;;;0.65;0.40;;;;;;;;;;4185748;28;20057;-46
2022/10/25 00:02:52;;;;;;;0.65;0.20;;;;;;;;;;4186714;28;20053;-44
2022/10/25 00:04:53;;;;;;;1.33;0.40;;;;;;;;;;4194472;28;20377;-44
2022/10/25 00:06:54;;;;;;;0.55;0.40;;;;;;;;;;4193945;28;20098;-44
2022/10/25 00:08:55;;;;;;;0.38;0.30;;;;;;;;;;4189727;28;20056;-42
2022/10/25 00:10:56;;;;;;;0.52;0.30;;;;;;;;;;4182458;28;20114;-44
2022/10/25 00:12:58;;;;;;;1.05;0.30;;;;;;;;;;4192688;28;20057;-44
2022/10/25 00:15:00;;;;;;;0.70;0.20;;;;;;;;;;4193629;28;20495;-44
2022/10/25 00:17:02;;;;;;;0.95;0.40;;;;;;;;;;4187958;28;20550;-46
2022/10/25 00:19:03;;;;;;;0.68;0.40;;;;;;;;;;4188333;28;20337;-44
2022/10/25 00:21:05;;;;;;;0.50;0.32;;;;;;;;;;4189652;28;20052;-44
2022/10/25 00:23:07;;;;;;;0.60;0.30;;;;;;;;;;4188087;28;20410;-44
2022/10/25 00:25:09;;;;;;;0.40;0.30;;;;;;;;;;4192573;28;20102;-45
2022/10/25 00:27:10;;;;;;;0.32;0.22;;;;;;;;;;4194362;28;20751;-44
2022/10/25 00:29:11;;;;;;;0.38;0.20;;;;;;;;;;4182347;28;20122;-44
2022/10/25 00:31:15;;;;;;;0.85;0.30;;;;;;;;;;4192341;28;20138;-41
2022/10/25 00:33:16;;;;;;;0.30;0.20;;;;;;;;;;4183668;28;20056;-43
2022/10/25 00:35:18;;;;;;;0.30;0.20;;;;;;;;;;4187821;28;21140;-44
2022/10/25 00:37:19;;;;;;;0.28;0.20;;;;;;;;;;4194714;28;20479;-46
2022/10/25 00:39:21;;;;;;;0.35;0.25;;;;;;;;;;4195255;28;20454;-44
2022/10/25 00:41:26;;;;;;;0.88;0.57;;;;;;;;;;4195197;28;20396;-46
2022/10/25 00:43:32;;;;;;;0.35;0.20;;;;;;;;;;4195491;28;20193;-46
2022/10/25 00:45:34;;;;;;;0.40;0.28;;;;;;;;;;4177717;28;20061;-44
2022/10/25 00:47:44;;;;;;;0.82;0.40;;;;;;;;;;4193413;28;20538;-43
2022/10/25 00:49:49;;;;;;;0.55;0.20;;;;;;;;;;4186997;28;20186;-44
2022/10/25 00:51:57;;;;;;;0.38;0.20;;;;;;;;;;4194277;28;20061;-44
2022/10/25 00:53:58;;;;;;;0.30;0.30;;;;;;;;;;4176722;28;20049;-44
2022/10/25 00:56:21;;;;;;;0.20;0.20;;;;;;;;;;4195101;28;20773;-42
2022/10/25 00:58:25;;;;;;;0.88;0.30;;;;;;;;;;4188913;28;20056;-44
2022/10/25 01:00:27;;;;;;;0.38;0.22;;;;;;;;;;4192656;28;20102;-43
2022/10/25 01:02:28;;;;;;;0.60;0.30;;;;;;;;;;4193432;28;20052;-46
2022/10/25 01:04:30;;;;;;;0.50;0.20;;;;;;;;;;4192440;28;20060;-43
2022/10/25 01:06:40;;;;;;;0.30;0.22;;;;;;;;;;4187276;28;20052;-43
2022/10/25 01:08:42;;;;;;;0.40;0.38;;;;;;;;;;4185549;28;20075;-44
2022/10/25 01:10:43;;;;;;;0.30;0.20;;;;;;;;;;4183659;28;20060;-39
2022/10/25 01:12:44;;;;;;;0.52;0.30;;;;;;;;;;4191340;28;20070;-43
2022/10/25 01:14:47;;;;;;;0.32;0.20;;;;;;;;;;4197853;28;20056;-44
2022/10/25 01:17:29;;;;;;;0.30;0.20;;;;;;;;;;4196691;28;20554;-42
2022/10/25 01:20:08;;;;;;;0.30;0.20;;;;;;;;;;4185033;28;20053;-44
2022/10/25 01:22:31;;;;;;;0.77;0.37;;;;;;;;;;4195129;28;20111;-43
2022/10/25 01:24:35;;;;;;;0.13;0.13;;;;;;;;;;4189754;28;20113;-43
2022/10/25 01:26:58;;;;;;;0.85;0.30;;;;;;;;;;4186441;28;20186;-43
2022/10/25 01:29:25;;;;;;;0.70;0.20;;;;;;;;;;4169628;28;20459;-45
2022/10/25 01:31:52;;;;;;;0.55;0.40;;;;;;;;;;4197982;28;20499;-43
2022/10/25 01:34:16;;;;;;;0.40;0.20;;;;;;;;;;4198396;28;20385;-44
2022/10/25 01:36:28;;;;;;;0.40;0.25;;;;;;;;;;4180791;28;20103;-44
2022/10/25 01:38:48;;;;;;;0.30;0.30;;;;;;;;;;4196786;28;20506;-43
2022/10/25 01:41:16;;;;;;;0.25;0.20;;;;;;;;;;4192483;28;20373;-44
2022/10/25 01:43:32;;;;;;;0.57;0.40;;;;;;;;;;4186784;28;20064;-43
2022/10/25 01:45:40;;;;;;;1.25;0.30;;;;;;;;;;4175687;28;20369;-43
2022/10/25 01:47:52;;;;;;;0.52;0.32;;;;;;;;;;4196645;28;20052;-45
2022/10/25 01:50:00;;;;;;;0.85;0.35;;;;;;;;;;4185029;28;20543;-43
2022/10/25 01:52:02;;;;;;;0.63;0.30;;;;;;;;;;4197082;28;20052;-45
2022/10/25 01:54:21;;;;;;;0.77;0.30;;;;;;;;;;4187515;28;20123;-44
2022/10/25 01:56:29;;;;;;;0.93;0.38;;;;;;;;;;4195810;28;20128;-44
2022/10/25 01:58:41;;;;;;;0.28;0.28;;;;;;;;;;4175232;28;20057;-45
2022/10/25 02:00:53;;;;;;;0.38;0.22;;;;;;;;;;4195683;28;20064;-45
2022/10/25 02:03:13;;;;;;;1.02;0.30;;;;;;;;;;4182716;28;20095;-44
2022/10/25 02:05:17;;;;;;;;;;;;;;;;;;4182049;28;20064;-44
2022/10/25 02:07:28;;;;;;;0.20;0.20;;;;;;;;;;4180485;28;19974;-46
2022/10/25 02:09:36;;;;;;;0.35;0.20;;;;;;;;;;4181645;28;20447;-44
2022/10/25 02:11:37;;;;;;;0.20;0.10;;;;;;;;;;4195424;28;20483;-46
2022/10/25 02:13:47;;;;;;;0.68;0.30;;;;;;;;;;4180696;28;20110;-45
2022/10/25 02:15:57;;;;;;;0.52;0.40;;;;;;;;;;4180174;28;20102;-44
2022/10/25 02:18:01;;;;;;;0.17;0.17;;;;;;;;;;4181493;28;20044;-44
2022/10/25 02:20:04;;;;;;;0.25;0.20;;;;;;;;;;4189979;28;20056;-46
2022/10/25 02:22:07;;;;;;;0.65;0.30;;;;;;;;;;4188844;28;20127;-44
2022/10/25 02:24:21;;;;;;;0.30;0.20;;;;;;;;;;4187941;28;20056;-43
2022/10/25 02:26:24;;;;;;;0.40;0.17;;;;;;;;;;4190340;28;20049;-44
2022/10/25 02:28:26;;;;;;;0.47;0.20;;;;;;;;;;4162316;28;20123;-43
2022/10/25 02:30:28;;;;;;;0.82;0.30;;;;;;;;;;4195388;28;20055;-44
2022/10/25 02:32:30;;;;;;;0.22;0.22;;;;;;;;;;4181032;28;20053;-42
2022/10/25 02:34:32;;;;;;;0.93;0.20;;;;;;;;;;4177918;28;20087;-44
2022/10/25 02:36:33;;;;;;;0.15;0.13;;;;;;;;;;4188158;28;20057;-44
2022/10/25 02:38:34;;;;;;;0.47;0.30;;;;;;;;;;4195969;28;20053;-44
2022/10/25 02:40:36;;;;;;;0.65;0.30;;;;;;;;;;4195427;28;20048;-43
2022/10/25 02:42:38;;;;;;;0.50;0.22;;;;;;;;;;4194892;28;20102;-45
2022/10/25 02:44:39;;;;;;;0.75;0.47;;;;;;;;;;4196738;28;20048;-43
2022/10/25 02:46:41;;;;;;;0.28;0.20;;;;;;;;;;4195808;28;20056;-43
2022/10/25 02:48:43;;;;;;;0.20;0.20;;;;;;;;;;4196463;28;20060;-44
2022/10/25 02:50:44;;;;;;;0.40;0.20;;;;;;;;;;4194205;28;20084;-46
2022/10/25 02:52:46;;;;;;;0.20;0.20;;;;;;;;;;4185952;28;20109;-44
2022/10/25 02:54:47;;;;;;;0.40;0.20;;;;;;;;;;4195584;28;20554;-44
2022/10/25 02:56:51;;;;;;;0.40;0.20;;;;;;;;;;4196488;28;20399;-46
2022/10/25 02:58:55;;;;;;;0.30;0.20;;;;;;;;;;4194135;28;20056;-44
2022/10/25 03:00:57;;;;;;;0.57;0.40;;;;;;;;;;4196129;28;20430;-42
2022/10/25 03:02:58;;;;;;;0.17;0.10;;;;;;;;;;4195826;28;20526;-45
2022/10/25 03:05:00;;;;;;;0.20;0.20;;;;;;;;;;4194812;28;20204;-42
2022/10/25 03:07:01;;;;;;;0.40;0.20;;;;;;;;;;4156295;28;1091419;-44
2022/10/25 03:09:03;;;;;;;0.52;0.20;;;;;;;;;;4186395;28;20115;-44
2022/10/25 03:11:05;;;;;;;0.50;0.20;;;;;;;;;;4197005;28;20106;-44
2022/10/25 03:13:06;;;;;;;0.30;0.15;;;;;;;;;;4197022;28;20065;-43
2022/10/25 03:15:08;;;;;;;0.40;0.40;;;;;;;;;;4194456;28;20105;-42
2022/10/25 03:17:10;;;;;;;0.30;0.20;;;;;;;;;;4195522;28;20060;-44
2022/10/25 03:19:11;;;;;;;0.50;0.25;;;;;;;;;;4196910;28;20133;-44
2022/10/25 03:21:12;;;;;;;0.35;0.35;;;;;;;;;;4179196;28;20083;-42
2022/10/25 03:23:15;;;;;;;0.20;0.10;;;;;;;;;;4196197;28;20052;-43
2022/10/25 03:25:15;;;;;;;0.20;0.17;;;;;;;;;;4188164;28;20102;-44
2022/10/25 03:27:17;;;;;;;0.55;0.30;;;;;;;;;;4185223;28;20129;-44
2022/10/25 03:29:18;;;;;;;0.20;0.17;;;;;;;;;;4186920;28;20459;-44
2022/10/25 03:31:20;;;;;;;0.15;0.10;;;;;;;;;;4178461;28;20056;-44
2022/10/25 03:33:22;;;;;;;0.38;0.17;;;;;;;;;;4193952;28;20059;-46
2022/10/25 03:35:23;;;;;;;0.40;0.20;;;;;;;;;;4173098;28;20417;-44
2022/10/25 03:37:25;;;;;;;0.68;0.40;;;;;;;;;;4179249;28;20106;-43
2022/10/25 03:39:26;;;;;;;0.68;0.20;;;;;;;;;;4180105;28;20057;-44
2022/10/25 03:41:28;;;;;;;0.30;0.20;;;;;;;;;;4179621;28;20488;-43
2022/10/25 03:43:29;;;;;;;0.70;0.40;;;;;;;;;;4195462;28;20079;-44
2022/10/25 03:45:31;;;;;;;0.52;0.20;;;;;;;;;;4179938;28;20087;-43
2022/10/25 03:47:32;;;;;;;0.50;0.40;;;;;;;;;;4178329;28;20052;-43
2022/10/25 03:49:34;;;;;;;0.30;0.20;;;;;;;;;;4194190;28;20052;-43
2022/10/25 03:51:35;;;;;;;0.50;0.30;;;;;;;;;;4196390;28;20416;-45
2022/10/25 03:53:36;;;;;;;0.20;0.20;;;;;;;;;;4196370;28;20059;-43
2022/10/25 03:55:38;;;;;;;0.85;0.30;;;;;;;;;;4186301;28;20415;-45
2022/10/25 03:57:39;;;;;;;0.10;0.10;;;;;;;;;;4183296;28;20403;-44
2022/10/25 03:59:43;;;;;;;0.20;0.20;;;;;;;;;;4183193;28;20052;-43
2022/10/25 04:01:44;;;;;;;0.20;0.20;;;;;;;;;;4196103;28;20052;-43
2022/10/25 04:03:46;;;;;;;0.60;0.20;;;;;;;;;;4186954;28;20086;-46
2022/10/25 04:05:47;;;;;;;0.35;0.20;;;;;;;;;;4179635;28;20056;-43
2022/10/25 04:07:48;;;;;;;0.38;0.20;;;;;;;;;;4179098;28;20060;-42
2022/10/25 04:09:50;;;;;;;0.30;0.17;;;;;;;;;;4185626;28;20488;-49
2022/10/25 04:11:51;;;;;;;0.20;0.20;;;;;;;;;;4187558;28;20096;-43
2022/10/25 04:13:52;;;;;;;0.80;0.38;;;;;;;;;;4183383;28;20459;-46
2022/10/25 04:15:54;;;;;;;0.40;0.20;;;;;;;;;;4179508;28;20053;-43
2022/10/25 04:17:55;;;;;;;1.50;0.38;;;;;;;;;;4178976;28;20142;-43
2022/10/25 04:19:56;;;;;;;0.75;0.30;;;;;;;;;;4180372;28;20476;-43
2022/10/25 04:21:57;;;;;;;0.40;0.30;;;;;;;;;;4185900;28;20068;-44
2022/10/25 04:23:59;;;;;;;0.68;0.43;;;;;;;;;;4182055;28;20099;-45
2022/10/25 04:26:01;;;;;;;0.20;0.20;;;;;;;;;;4181470;28;20452;-43
2022/10/25 04:28:03;;;;;;;0.30;0.30;;;;;;;;;;4179640;28;20106;-44
2022/10/25 04:30:04;;;;;;;0.60;0.30;;;;;;;;;;4179830;28;20057;-44
2022/10/25 04:32:06;;;;;;;0.10;0.10;;;;;;;;;;4179307;28;20094;-43
2022/10/25 04:34:07;;;;;;;0.32;0.20;;;;;;;;;;4181904;28;20076;-43
2022/10/25 04:36:08;;;;;;;0.40;0.30;;;;;;;;;;4173237;28;20155;-44
2022/10/25 04:38:10;;;;;;;0.30;0.30;;;;;;;;;;4180066;28;20049;-46
2022/10/25 04:40:11;;;;;;;0.52;0.22;;;;;;;;;;4190996;28;20082;-47
2022/10/25 04:42:13;;;;;;;0.35;0.25;;;;;;;;;;4193493;28;20114;-58
2022/10/25 04:44:14;;;;;;;0.25;0.20;;;;;;;;;;4179682;28;20057;-50
2022/10/25 04:46:15;;;;;;;0.28;0.20;;;;;;;;;;4179683;28;20061;-43
2022/10/25 04:48:16;;;;;;;0.20;0.20;;;;;;;;;;4190454;28;20143;-43
2022/10/25 04:50:18;;;;;;;0.45;0.30;;;;;;;;;;4182168;28;20048;-44
2022/10/25 04:52:20;;;;;;;0.38;0.30;;;;;;;;;;4192499;28;20056;-43
2022/10/25 04:54:21;;;;;;;0.40;0.35;;;;;;;;;;4179469;28;20110;-48
2022/10/25 04:56:23;;;;;;;0.38;0.38;;;;;;;;;;4180354;28;20061;-44
2022/10/25 04:58:25;;;;;;;0.63;0.35;;;;;;;;;;4179309;28;20053;-43
2022/10/25 05:00:26;;;;;;;1.50;0.40;;;;;;;;;;4180088;28;20057;-43
2022/10/25 05:02:27;;;;;;;0.43;0.30;;;;;;;;;;4192065;28;20067;-44
2022/10/25 05:04:29;;;;;;;0.73;0.40;;;;;;;;;;4193696;28;20052;-43
2022/10/25 05:06:30;;;;;;;0.40;0.30;;;;;;;;;;4190811;28;20102;-44
2022/10/25 05:08:32;;;;;;;0.30;0.28;;;;;;;;;;4176654;28;20559;-44
2022/10/25 05:10:33;;;;;;;1.08;0.40;;;;;;;;;;4177327;28;20065;-43
2022/10/25 05:12:34;;;;;;;0.70;0.52;;;;;;;;;;4182937;28;20423;-43
2022/10/25 05:14:36;;;;;;;0.50;0.45;;;;;;;;;;4176978;28;20132;-44
2022/10/25 05:16:38;;;;;;;0.50;0.35;;;;;;;;;;4176279;28;20061;-44
2022/10/25 05:18:41;;;;;;;0.93;0.73;;;;;;;;;;4177028;28;20571;-44
2022/10/25 05:20:43;;;;;;;1.08;0.50;;;;;;;;;;4179239;28;20162;-42
2022/10/25 05:22:44;;;;;;;0.50;0.50;;;;;;;;;;4182492;28;20085;-44
2022/10/25 05:24:46;;;;;;;0.40;0.40;;;;;;;;;;4190426;28;20048;-43
2022/10/25 05:26:47;;;;;;;0.50;0.30;;;;;;;;;;4189617;28;20520;-44
2022/10/25 05:28:51;;;;;;;0.50;0.50;;;;;;;;;;4176729;28;20114;-44
2022/10/25 05:30:52;;;;;;;0.40;0.40;;;;;;;;;;4187133;28;20056;-45
2022/10/25 05:32:53;;;;;;;0.20;0.20;;;;;;;;;;4192968;28;20110;-44
2022/10/25 05:34:55;;;;;;;0.50;0.43;;;;;;;;;;4190258;28;20466;-43
2022/10/25 05:36:56;;;;;;;0.38;0.35;;;;;;;;;;4181270;28;20201;-43
2022/10/25 05:38:59;;;;;;;0.55;0.50;;;;;;;;;;4176636;28;20131;-42
2022/10/25 05:41:01;;;;;;;0.77;0.68;;;;;;;;;;4175100;28;20061;-43
2022/10/25 05:43:02;;;;;;;0.90;0.52;;;;;;;;;;4179053;28;20057;-44
2022/10/25 05:45:04;;;;;;;0.45;0.45;;;;;;;;;;4193207;28;20060;-43
2022/10/25 05:47:05;;;;;;;0.85;0.75;;;;;;;;;;4184556;28;20053;-48
2022/10/25 05:49:06;;;;;;;0.80;0.47;;;;;;;;;;4176499;28;20053;-42
2022/10/25 05:51:19;;;;;;;0.70;0.47;;;;;;;;;;4191159;28;20063;-42
2022/10/25 05:53:20;;;;;;;1.20;0.68;;;;;;;;;;4193265;28;20132;-46
2022/10/25 05:55:21;;;;;;;0.80;0.65;;;;;;;;;;4184174;28;20053;-43
2022/10/25 05:57:22;;;;;;;0.82;0.75;;;;;;;;;;4176764;28;20060;-44
2022/10/25 05:59:24;;;;;;;0.57;0.50;;;;;;;;;;4174896;28;20057;-44
2022/10/25 06:01:25;;;;;;;0.68;0.55;;;;;;;;;;4189151;28;20049;-43
2022/10/25 06:03:26;;;;;;;0.40;0.40;;;;;;;;;;4187462;28;20053;-43
2022/10/25 06:05:28;;;;;;;0.75;0.57;;;;;;;;;;4184831;28;20060;-44
2022/10/25 06:07:29;;;;;;;0.60;0.50;;;;;;;;;;4193202;28;20458;-44
2022/10/25 06:09:31;;;;;;;0.52;0.47;;;;;;;;;;4182135;28;20056;-43
2022/10/25 06:11:32;;;;;;;0.85;0.65;;;;;;;;;;4178228;28;20057;-43
2022/10/25 06:13:34;;;;;;;0.60;0.50;;;;;;;;;;4186627;28;20181;-43
2022/10/25 06:15:38;;;;;;;0.95;0.55;;;;;;;;;;4183700;28;20573;-42
2022/10/25 06:17:40;;;;;;;0.60;0.60;;;;;;;;;;4189099;28;20086;-43
2022/10/25 06:19:41;;;;;;;0.80;0.60;;;;;;;;;;4195264;28;20059;-42
2022/10/25 06:21:43;;;;;;;1.95;0.60;;;;;;;;;;4194714;28;20064;-43
2022/10/25 06:23:45;;;;;;;0.68;0.50;;;;;;;;;;4202289;28;20126;-44
2022/10/25 06:25:46;;;;;;;0.80;0.65;;;;;;;;;;4196971;28;20390;-42
2022/10/25 06:27:47;;;;;;;0.63;0.60;;;;;;;;;;4197069;28;20790;-43
2022/10/25 06:29:49;;;;;;;0.98;0.80;;;;;;;;;;4197425;28;20055;-43
2022/10/25 06:31:50;;;;;;;0.75;0.68;;;;;;;;;;4200485;28;20558;-43
2022/10/25 06:33:52;;;;;;;0.50;0.50;;;;;;;;;;4189111;28;20095;-43
2022/10/25 06:35:54;;;;;;;1.35;0.80;;;;;;;;;;4177231;28;20179;-43
2022/10/25 06:38:00;;;;;;;0.98;0.80;;;;;;;;;;4193724;28;20051;-44
2022/10/25 06:40:01;;;;;;;0.70;0.70;;;;;;;;;;4197764;28;20052;-43
2022/10/25 06:42:02;;;;;;;0.47;0.45;;;;;;;;;;4199188;28;20052;-44
2022/10/25 06:44:05;;;;;;;0.65;0.55;;;;;;;;;;4188723;28;20167;-46
2022/10/25 06:46:08;;;;;;;1.55;0.63;;;;;;;;;;4189488;28;20193;-43
2022/10/25 06:48:09;;;;;;;0.60;0.50;;;;;;;;;;4197548;28;20048;-43
2022/10/25 06:50:10;;;;;;;0.70;0.60;;;;;;;;;;4191558;28;20117;-45
2022/10/25 06:52:12;;;;;;;0.45;0.45;;;;;;;;;;4192572;28;20059;-42
2022/10/25 06:54:13;;;;;;;0.77;0.55;;;;;;;;;;4196359;28;20125;-42
2022/10/25 06:56:14;;;;;;;0.85;0.65;;;;;;;;;;4195618;28;20051;-43
2022/10/25 06:58:16;;;;;;;0.50;0.50;;;;;;;;;;4193892;28;20048;-39
2022/10/25 07:00:17;;;;;;;0.65;0.65;;;;;;;;;;4188909;28;20480;-43
2022/10/25 07:02:19;;;;;;;0.68;0.68;;;;;;;;;;4192641;28;20060;-43
2022/10/25 07:04:20;;;;;;;2.05;0.60;;;;;;;;;;4192572;28;20052;-43
2022/10/25 07:06:28;;;;;;;0.70;0.70;;;;;;;;;;4189794;28;20267;-40
2022/10/25 07:08:29;;;;;;;0.52;0.50;;;;;;;;;;4200734;28;20447;-43
2022/10/25 07:10:30;;;;;;;1.08;0.68;;;;;;;;;;4199617;28;20134;-43
2022/10/25 07:12:36;;;;;;;0.80;0.50;;;;;;;;;;4194575;28;20049;-44
2022/10/25 07:14:38;;;;;;;0.80;0.60;;;;;;;;;;4186132;28;20452;-44
2022/10/25 07:16:39;;;;;;;1.02;0.70;;;;;;;;;;4199271;28;20052;-43
2022/10/25 07:18:40;;;;;;;0.80;0.55;;;;;;;;;;4198159;28;20049;-43
2022/10/25 07:20:47;;;;;;;0.80;0.60;;;;;;;;;;4190123;28;20403;-44
2022/10/25 07:22:49;;;;;;;0.77;0.50;;;;;;;;;;4187982;28;20068;-44
2022/10/25 07:24:50;;;;;;;0.47;0.47;;;;;;;;;;4191056;28;20056;-44
2022/10/25 07:26:51;;;;;;;1.02;0.63;;;;;;;;;;4200712;28;20062;-43
2022/10/25 07:28:54;;;;;;;0.70;0.60;;;;;;;;;;4199523;28;20053;-45
2022/10/25 07:30:56;;;;;;;1.15;0.80;;;;;;;;;;4196053;28;20579;-42
2022/10/25 07:32:57;;;;;;;0.60;0.50;;;;;;;;;;4194194;28;20313;-42
2022/10/25 07:34:58;;;;;;;0.73;0.50;;;;;;;;;;4185798;28;20071;-43
2022/10/25 07:37:00;;;;;;;0.80;0.60;;;;;;;;;;4197897;28;20052;-42
2022/10/25 07:39:02;;;;;;;0.80;0.60;;;;;;;;;;4202348;28;20051;-43
2022/10/25 07:41:04;;;;;;;1.15;0.60;;;;;;;;;;4195694;28;20319;-42
2022/10/25 07:43:05;;;;;;;0.70;0.60;;;;;;;;;;4194207;28;20058;-40
2022/10/25 07:45:07;;;;;;;0.65;0.40;;;;;;;;;;4194594;28;20056;-43
2022/10/25 07:47:08;;;;;;;0.90;0.60;;;;;;;;;;4190653;28;20056;-43
2022/10/25 07:49:10;;;;;;;1.27;0.80;;;;;;;;;;4185409;28;20308;-39
2022/10/25 07:51:13;;;;;;;0.70;0.60;;;;;;;;;;4191582;28;20412;-42
2022/10/25 07:53:14;;;;;;;1.50;0.60;;;;;;;;;;4190007;28;20091;-39
2022/10/25 07:55:16;;;;;;;1.25;0.70;;;;;;;;;;4196459;28;20048;-43
2022/10/25 07:57:18;;;;;;;0.47;0.47;;;;;;;;;;4192371;28;20098;-42
2022/10/25 07:59:21;;;;;;;1.30;0.77;;;;;;;;;;4196993;28;20133;-43
2022/10/25 08:01:24;;;;;;;0.70;0.60;;;;;;;;;;4183203;28;20048;-43
2022/10/25 08:03:25;;;;;;;0.63;0.60;;;;;;;;;;4200054;28;20553;-43
2022/10/25 08:05:27;;;;;;;1.00;0.57;;;;;;;;;;4184603;28;20483;-43
2022/10/25 08:07:28;;;;;;;1.60;0.93;;;;;;;;;;4188309;28;20049;-41
2022/10/25 08:09:48;;;;;;;0.70;0.60;;;;;;;;;;4195384;28;20116;-42
2022/10/25 08:11:49;;;;;;;0.68;0.57;;;;;;;;;;4189015;28;20106;-43
2022/10/25 08:13:51;;;;;;;0.50;0.50;;;;;;;;;;4197317;28;20400;-43
2022/10/25 08:15:54;;;;;;;1.13;0.70;;;;;;;;;;4194415;28;20060;-42
2022/10/25 08:17:59;;;;;;;2.88;0.70;;;;;;;;;;4193196;28;20465;-43
2022/10/25 08:20:00;;;;;;;1.02;0.77;;;;;;;;;;4196996;28;20564;-45
2022/10/25 08:22:01;;;;;;;1.70;1.00;;;;;;;;;;4193378;28;20048;-43
2022/10/25 08:24:03;;;;;;;1.02;0.63;;;;;;;;;;4185483;28;20056;-43
2022/10/25 08:26:04;;;;;;;0.80;0.80;;;;;;;;;;4198623;28;20055;-39
2022/10/25 08:28:05;;;;;;;0.80;0.35;;;;;;;;;;4192588;28;20368;-43
2022/10/25 08:30:07;;;;;;;1.02;0.57;;;;;;;;;;4189973;28;20056;-42
2022/10/25 08:32:09;;;;;;;1.05;0.80;;;;;;;;;;4199622;28;20151;-44
2022/10/25 08:34:10;;;;;;;2.20;0.80;;;;;;;;;;4192996;28;20408;-44
2022/10/25 08:36:11;;;;;;;0.75;0.60;;;;;;;;;;4201483;28;20105;-44
2022/10/25 08:38:13;;;;;;;1.33;0.80;;;;;;;;;;4195437;28;20044;-41
2022/10/25 08:40:22;;;;;;;1.13;0.70;;;;;;;;;;4193409;28;20052;-42
2022/10/25 08:42:41;;;;;;;1.00;0.60;;;;;;;;;;4197619;28;20559;-43
2022/10/25 08:44:57;;;;;;;1.02;0.70;;;;;;;;;;4175125;28;20056;-43
2022/10/25 08:47:32;;;;;;;1.30;0.82;;;;;;;;;;4197853;28;20055;-42
2022/10/25 08:49:43;;;;;;;1.15;0.77;;;;;;;;;;4193377;28;20133;-43
2022/10/25 08:51:46;;;;;;;0.88;0.70;;;;;;;;;;4199836;28;20052;-42
2022/10/25 08:53:49;;;;;;;1.10;0.68;;;;;;;;;;4197722;28;20588;-43
2022/10/25 08:55:50;;;;;;;0.70;0.70;;;;;;;;;;4191144;28;20060;-43
2022/10/25 08:57:53;;;;;;;1.17;0.60;;;;;;;;;;4197850;28;20055;-43
2022/10/25 08:59:58;;;;;;;1.25;0.70;;;;;;;;;;4195324;28;20126;-43
2022/10/25 09:01:59;;;;;;;0.65;0.60;;;;;;;;;;4172279;28;20416;-42
2022/10/25 09:04:00;;;;;;;0.73;0.70;;;;;;;;;;4196605;28;20056;-44
2022/10/25 09:06:23;;;;;;;1.05;0.70;;;;;;;;;;4174943;28;20056;-42
2022/10/25 09:09:04;;;;;;;1.23;0.70;;;;;;;;;;4193861;28;20468;-42
2022/10/25 09:11:43;;;;;;;1.27;0.68;;;;;;;;;;4150962;28;20414;-43
2022/10/25 09:14:10;;;;;;;0.73;0.73;;;;;;;;;;4194092;28;20051;-43
2022/10/25 09:16:23;;;;;;;1.15;0.63;;;;;;;;;;4196180;28;20498;-42
2022/10/25 09:18:37;;;;;;;0.65;0.65;;;;;;;;;;4186740;28;20064;-43
2022/10/25 09:20:52;;;;;;;0.77;0.60;;;;;;;;;;4178303;28;20102;-43
2022/10/25 09:22:59;;;;;;;0.63;0.60;;;;;;;;;;4197664;28;20056;-43
2022/10/25 09:25:19;;;;;;;0.85;0.77;;;;;;;;;;4191451;28;20449;-42
2022/10/25 09:27:42;;;;;;;1.33;0.60;;;;;;;;;;4193726;28;20472;-43
2022/10/25 09:29:51;;;;;;;0.80;0.60;;;;;;;;;;4186782;28;20060;-43
2022/10/25 09:31:57;;;;;;;0.90;0.57;;;;;;;;;;4172618;28;20118;-42
2022/10/25 09:34:00;;;;;;;0.55;0.55;;;;;;;;;;4188502;28;20480;-43
2022/10/25 09:36:02;;;;;;;0.77;0.55;;;;;;;;;;4191075;28;20855;-44
2022/10/25 09:38:16;;;;;;;0.82;0.82;;;;;;;;;;4199550;28;20052;-43
2022/10/25 09:40:22;;;;;;;0.50;0.50;;;;;;;;;;4202429;28;20109;-43
2022/10/25 09:42:36;;;;;;;0.70;0.60;;;;;;;;;;4194518;28;20056;-42
2022/10/25 09:44:43;;;;;;;1.08;0.80;;;;;;;;;;4193347;28;20052;-43
2022/10/25 09:46:53;;;;;;;1.15;0.85;;;;;;;;;;4200071;28;20101;-43
2022/10/25 09:49:01;;;;;;;1.33;0.70;;;;;;;;;;4201007;28;20048;-43
2022/10/25 09:51:17;;;;;;;0.88;0.60;;;;;;;;;;4194400;28;20086;-43
2022/10/25 09:53:18;;;;;;;0.60;0.60;;;;;;;;;;4193011;28;20415;-43
2022/10/25 09:55:28;;;;;;;1.27;0.77;;;;;;;;;;4202653;28;20056;-43
2022/10/25 09:57:29;;;;;;;0.60;0.60;;;;;;;;;;4179171;28;20072;-43
2022/10/25 09:59:31;;;;;;;0.88;0.80;;;;;;;;;;4179467;28;20102;-43
2022/10/25 10:01:33;;;;;;;0.85;0.60;;;;;;;;;;4178562;28;20061;-43
2022/10/25 10:03:35;;;;;;;0.70;0.60;;;;;;;;;;4184483;28;20083;-42
2022/10/25 10:05:37;;;;;;;1.05;0.73;;;;;;;;;;4183879;28;20666;-43
2022/10/25 10:07:39;;;;;;;2.10;0.80;;;;;;;;;;4205018;28;20079;-42
2022/10/25 10:09:41;;;;;;;0.70;0.40;;;;;;;;;;4202853;28;20083;-42
2022/10/25 10:11:44;;;;;;;0.90;0.60;;;;;;;;;;4201433;28;20392;-41
2022/10/25 10:14:18;;;;;;;1.27;0.73;;;;;;;;;;4189829;28;20438;-43
2022/10/25 10:16:27;;;;;;;1.75;0.82;;;;;;;;;;4201689;28;20159;-43
2022/10/25 10:18:33;;;;;;;0.75;0.55;;;;;;;;;;4193294;28;20045;-43
2022/10/25 10:20:34;;;;;;;0.73;0.60;;;;;;;;;;4200245;28;20524;-42
2022/10/25 10:22:37;;;;;;;0.52;0.52;;;;;;;;;;4198283;28;20051;-42
2022/10/25 10:24:41;;;;;;;0.50;0.50;;;;;;;;;;4192943;28;20060;-42
2022/10/25 10:26:46;;;;;;;0.85;0.85;;;;;;;;;;4190707;28;20075;-43
2022/10/25 10:29:09;;;;;;;0.60;0.60;;;;;;;;;;4201749;28;20113;-44
2022/10/25 10:31:11;;;;;;;0.80;0.73;;;;;;;;;;4192757;28;20114;-47
2022/10/25 10:33:15;;;;;;;1.05;0.90;;;;;;;;;;4202548;28;20052;-43
2022/10/25 10:35:26;;;;;;;0.85;0.65;;;;;;;;;;4187829;28;20508;-44
2022/10/25 10:37:28;;;;;;;1.17;0.80;;;;;;;;;;4198374;28;20052;-44
2022/10/25 10:39:30;;;;;;;0.60;0.60;;;;;;;;;;4190626;28;20053;-44
2022/10/25 10:41:31;;;;;;;1.75;0.82;;;;;;;;;;4201197;28;20048;-44
2022/10/25 10:43:33;;;;;;;0.60;0.60;;;;;;;;;;4199773;28;20061;-44
2022/10/25 10:45:34;;;;;;;1.00;0.88;;;;;;;;;;4190887;28;20075;-45
2022/10/25 10:47:49;;;;;;;1.02;0.88;;;;;;;;;;4201060;28;20113;-44
2022/10/25 10:49:51;;;;;;;0.82;0.60;;;;;;;;;;4199191;28;20056;-44
2022/10/25 10:51:52;;;;;;;1.23;0.95;;;;;;;;;;4198790;28;20064;-44
2022/10/25 10:53:53;;;;;;;2.45;0.95;;;;;;;;;;4198372;28;20499;-44
2022/10/25 10:55:56;;;;;;;1.00;0.70;;;;;;;;;;4201539;28;20056;-44
2022/10/25 10:58:14;;;;;;;0.80;0.70;;;;;;;;;;4200881;28;20488;-44
2022/10/25 11:00:27;;;;;;;1.25;0.93;;;;;;;;;;4194367;28;20106;-43
2022/10/25 11:02:38;;;;;;;1.08;0.82;;;;;;;;;;4200146;28;20052;-44
2022/10/25 11:04:47;;;;;;;1.00;0.85;;;;;;;;;;4202092;28;20063;-44
2022/10/25 11:06:48;;;;;;;0.85;0.70;;;;;;;;;;4191679;28;20067;-43
2022/10/25 11:09:23;;;;;;;1.33;1.02;;;;;;;;;;4200202;28;20118;-43
2022/10/25 11:11:24;;;;;;;0.73;0.70;;;;;;;;;;4202843;28;20059;-43
2022/10/25 11:13:27;;;;;;;1.27;0.73;;;;;;;;;;4189698;28;20074;-43
2022/10/25 11:15:32;;;;;;;0.95;0.75;;;;;;;;;;4193987;28;20048;-44
2022/10/25 11:17:37;;;;;;;1.15;0.90;;;;;;;;;;4196919;28;20063;-44
2022/10/25 11:19:54;;;;;;;0.90;0.63;;;;;;;;;;4201965;28;20063;-44
2022/10/25 11:22:40;;;;;;;1.30;0.75;;;;;;;;;;4199648;28;20421;-43
2022/10/25 11:25:05;;;;;;;1.15;0.90;;;;;;;;;;4192613;28;20052;-45
2022/10/25 11:27:23;;;;;;;1.20;0.60;;;;;;;;;;4199433;28;20118;-44
2022/10/25 11:29:52;;;;;;;1.33;1.00;;;;;;;;;;4192447;28;20060;-45
2022/10/25 11:32:26;;;;;;;1.08;0.80;;;;;;;;;;4190080;28;20130;-44
2022/10/25 11:35:06;;;;;;;0.95;0.85;;;;;;;;;;4197273;28;20052;-44
2022/10/25 11:37:20;;;;;;;;;;;;;;;;;;4162465;28;20052;-41
2022/10/25 11:39:50;;;;;;;1.23;1.00;;;;;;;;;;4196144;28;20465;-44
2022/10/25 11:42:07;;;;;;;1.20;0.88;;;;;;;;;;4193572;28;20075;-44
2022/10/25 11:44:26;;;;;;;0.70;0.70;;;;;;;;;;4187742;28;20091;-44
2022/10/25 11:46:30;;;;;;;2.58;1.00;;;;;;;;;;4186585;28;20457;-44
2022/10/25 11:48:44;;;;;;;1.10;0.70;;;;;;;;;;4197766;28;20059;-44
2022/10/25 11:51:14;;;;;;;1.20;0.80;;;;;;;;;;4187923;28;20076;-43
2022/10/25 11:53:29;;;;;;;0.70;0.55;;;;;;;;;;4189123;28;20082;-44
2022/10/25 11:55:49;;;;;;;1.75;1.02;;;;;;;;;;4192122;28;20056;-44
2022/10/25 11:58:15;;;;;;;1.25;0.93;;;;;;;;;;4187103;28;20490;-44
2022/10/25 12:00:20;;;;;;;1.38;0.77;;;;;;;;;;4189506;28;20052;-44
2022/10/25 12:02:44;;;;;;;1.02;0.70;;;;;;;;;;4188439;28;20057;-44
2022/10/25 12:04:52;;;;;;;0.93;0.88;;;;;;;;;;4190025;28;20049;-44
2022/10/25 12:07:07;;;;;;;1.13;0.80;;;;;;;;;;4194033;28;20130;-44
2022/10/25 12:09:27;;;;;;;0.88;0.52;;;;;;;;;;4193462;28;20113;-43
2022/10/25 12:11:36;;;;;;;0.77;0.65;;;;;;;;;;4173938;28;20045;-42
2022/10/25 12:13:39;;;;;;;1.85;0.75;;;;;;;;;;4188994;28;20052;-43
2022/10/25 12:15:45;;;;;;;0.60;0.60;;;;;;;;;;4184632;28;20101;-43
2022/10/25 12:17:46;;;;;;;1.08;0.77;;;;;;;;;;4188904;28;20458;-41
2022/10/25 12:19:49;;;;;;;1.00;0.65;;;;;;;;;;4173232;28;20065;-43
2022/10/25 12:22:02;;;;;;;1.02;0.60;;;;;;;;;;4200141;28;20090;-42
2022/10/25 12:24:06;;;;;;;2.25;0.60;;;;;;;;;;4188500;28;20060;-45
2022/10/25 12:26:24;;;;;;;2.00;0.60;;;;;;;;;;4188307;28;20126;-43
2022/10/25 12:28:34;;;;;;;0.55;0.50;;;;;;;;;;4188100;28;20052;-43
2022/10/25 12:30:35;;;;;;;0.77;0.50;;;;;;;;;;4188552;28;20570;-43
2022/10/25 12:32:49;;;;;;;0.93;0.50;;;;;;;;;;4198089;28;20052;-43
2022/10/25 12:34:52;;;;;;;0.60;0.50;;;;;;;;;;4189127;28;20063;-43